Terminal Aerodrome Forecast
Issued by NWS Mt. Holly, NJ

Current Version | Previous Version | Text Only | Print | Product List | Glossary On
Versions: 1 2 3 4 5 6 7 8 9 10 11 12 13 14 15 16 17 18
000
FTUS41 KPHI 110520
TAFRDG
TAF
KRDG 110520Z 1106/1206 VRB03KT P6SM BKN050 OVC070
      TEMPO 1107/1110 6SM -SHRA BKN025
     FM111000 VRB02KT P6SM FEW012 BKN050
     FM111500 32008KT P6SM SCT050
     FM120100 25005KT P6SM FEW050 BKN250=

USA.gov is the U.S. government's official web portal to all federal, state and local government web resources and services.